createdAt,value
2023-05-07T03:49:18.299Z,99.99
2023-05-07T03:50:18.289Z,99.99
2023-05-07T03:51:18.277Z,99.99
2023-05-07T03:52:18.273Z,99.99
2023-05-07T03:53:18.261Z,99.99
2023-05-07T03:54:18.248Z,99.99
2023-05-07T03:55:18.239Z,99.99
2023-05-07T03:56:19.695Z,99.99
2023-05-07T03:57:18.413Z,99.99
2023-05-07T03:58:18.505Z,99.99
2023-05-07T03:59:18.192Z,99.99
2023-05-07T04:00:18.383Z,99.99
2023-05-07T04:01:18.184Z,99.99
2023-05-07T04:02:18.178Z,99.99
2023-05-07T04:03:18.292Z,99.99
2023-05-07T04:04:18.193Z,99.99
2023-05-07T04:05:18.129Z,99.99
2023-05-07T04:06:18.319Z,99.99
2023-05-07T04:07:18.109Z,99.99
2023-05-07T04:08:18.095Z,99.99
2023-05-07T04:09:18.087Z,99.99
2023-05-07T04:10:18.073Z,99.99
2023-05-07T04:11:19.415Z,99.99
2023-05-07T04:12:18.054Z,99.99
2023-05-07T04:13:18.119Z,99.99
2023-05-07T04:14:18.179Z,99.99
2023-05-07T04:15:18.022Z,99.99
2023-05-07T04:16:18.035Z,99.99
2023-05-07T04:17:18.000Z,99.99
2023-05-07T04:18:17.989Z,99.99
2023-05-07T04:19:17.977Z,99.99
2023-05-07T04:20:17.962Z,99.99
2023-05-07T04:21:17.955Z,99.99
2023-05-07T04:22:17.984Z,99.99
2023-05-07T04:23:17.958Z,99.99
2023-05-07T04:24:17.932Z,99.99
2023-05-07T04:25:17.913Z,99.99
2023-05-07T04:26:17.908Z,99.99
2023-05-07T04:27:17.893Z,99.99
2023-05-07T04:28:17.882Z,99.99
2023-05-07T04:29:17.869Z,99.99
2023-05-07T04:30:17.883Z,99.99
2023-05-07T04:31:17.918Z,99.99
2023-05-07T04:32:17.894Z,99.99
2023-05-07T04:33:17.850Z,99.99
2023-05-07T04:34:17.816Z,99.99
2023-05-07T04:35:17.801Z,99.99
2023-05-07T04:36:17.800Z,99.99
2023-05-07T04:37:17.779Z,99.99
2023-05-07T04:38:17.769Z,99.99
2023-05-07T04:39:17.763Z,99.99
2023-05-07T04:40:17.746Z,99.99
2023-05-07T04:41:17.779Z,99.99
2023-05-07T04:42:17.931Z,99.99
2023-05-07T04:43:17.716Z,99.99
2023-05-07T04:44:17.703Z,99.99
2023-05-07T04:45:17.691Z,99.99
2023-05-07T04:46:17.832Z,99.99
2023-05-07T04:47:17.675Z,99.99
2023-05-07T04:48:17.862Z,99.99
2023-05-07T04:49:17.651Z,99.99
2023-05-07T04:50:17.641Z,99.99
2023-05-07T04:51:17.631Z,99.99
2023-05-07T04:52:17.618Z,99.99
2023-05-07T04:53:17.615Z,99.99
2023-05-07T04:54:17.595Z,99.99
2023-05-07T04:55:17.601Z,99.99
2023-05-07T04:56:17.575Z,99.99
2023-05-07T04:57:17.567Z,99.99
2023-05-07T04:58:19.302Z,99.99
2023-05-07T04:59:17.546Z,99.99
2023-05-07T05:00:17.569Z,99.99
2023-05-07T05:01:51.632Z,99.99
2023-05-07T05:02:51.532Z,99.99
2023-05-07T05:03:51.521Z,99.99
2023-05-07T05:04:51.418Z,99.99
2023-05-07T05:05:51.408Z,99.99
2023-05-07T05:06:51.396Z,99.99
2023-05-07T05:07:51.395Z,99.99
2023-05-07T05:08:51.379Z,99.99
2023-05-07T05:09:51.363Z,99.99
2023-05-07T05:10:51.354Z,99.99
2023-05-07T05:11:51.343Z,99.99
2023-05-07T05:12:51.420Z,99.99
2023-05-07T05:13:51.324Z,99.99
2023-05-07T05:14:51.313Z,99.99
2023-05-07T05:15:51.306Z,99.99
2023-05-07T05:16:51.294Z,99.99
2023-05-07T05:17:51.443Z,99.99
2023-05-07T05:18:51.267Z,99.99
2023-05-07T05:19:51.265Z,99.99
2023-05-07T05:20:51.248Z,99.99
2023-05-07T05:21:51.233Z,99.99
2023-05-07T05:22:51.226Z,99.99
2023-05-07T05:23:51.225Z,99.99
2023-05-07T05:24:51.203Z,99.99
2023-05-07T05:25:51.195Z,99.99
2023-05-07T05:26:51.187Z,99.99
2023-05-07T05:27:51.381Z,99.99
2023-05-07T05:28:51.157Z,99.99
2023-05-07T05:29:51.152Z,99.99
2023-05-07T05:30:51.138Z,99.99
2023-05-07T05:31:51.210Z,99.99
2023-05-07T05:32:51.230Z,99.99
2023-05-07T05:33:51.138Z,99.99
2023-05-07T05:34:51.095Z,99.99
2023-05-07T05:35:51.093Z,99.99
2023-05-07T05:36:51.082Z,99.99
2023-05-07T05:37:51.071Z,99.99
2023-05-07T05:38:51.059Z,99.99
2023-05-07T05:39:51.048Z,99.99
2023-05-07T05:40:51.040Z,99.99
2023-05-07T05:41:51.025Z,99.99
2023-05-07T05:42:51.224Z,99.99
2023-05-07T05:43:51.003Z,99.99
2023-05-07T05:44:50.992Z,99.99
2023-05-07T05:45:50.978Z,99.99
2023-05-07T05:46:51.176Z,99.99
2023-05-07T05:47:51.044Z,99.99
2023-05-07T05:48:52.470Z,99.99
2023-05-07T05:49:50.939Z,99.99
2023-05-07T05:50:50.927Z,99.99
2023-05-07T05:51:50.915Z,99.99
2023-05-07T05:52:50.904Z,99.99
2023-05-07T05:53:50.901Z,99.99
2023-05-07T05:54:50.881Z,99.99
2023-05-07T05:55:50.872Z,99.99
2023-05-07T05:56:50.861Z,99.99
2023-05-07T05:57:50.852Z,99.99
2023-05-07T05:58:50.918Z,99.99
2023-05-07T05:59:50.838Z,99.99
2023-05-07T06:00:50.818Z,99.99
2023-05-07T06:01:50.889Z,99.99
2023-05-07T06:02:50.843Z,99.99
2023-05-07T06:03:50.794Z,99.99
2023-05-07T06:04:50.888Z,99.99
2023-05-07T06:05:50.768Z,99.99
2023-05-07T06:06:50.758Z,99.99
2023-05-07T06:07:50.746Z,99.99
2023-05-07T06:08:50.739Z,99.99
2023-05-07T06:09:50.745Z,99.99
2023-05-07T06:10:50.718Z,99.99
2023-05-07T06:11:50.705Z,99.99
2023-05-07T06:12:50.715Z,99.99
2023-05-07T06:13:50.683Z,99.99
2023-05-07T06:14:50.680Z,99.99
2023-05-07T06:15:50.662Z,99.99
2023-05-07T06:16:50.674Z,99.99
2023-05-07T06:17:50.675Z,99.99
2023-05-07T06:18:50.630Z,99.99
2023-05-07T06:19:50.628Z,99.99
2023-05-07T06:20:50.763Z,99.99
2023-05-07T06:21:50.601Z,99.99
2023-05-07T06:22:50.585Z,99.99
2023-05-07T06:23:50.579Z,99.99
2023-05-07T06:24:50.567Z,99.81
2023-05-07T06:25:50.554Z,99.99
2023-05-07T06:26:50.544Z,99.99
2023-05-07T06:27:50.740Z,99.26
2023-05-07T06:28:50.527Z,99.15
2023-05-07T06:29:50.520Z,99.60
2023-05-07T06:30:50.512Z,99.99
2023-05-07T06:31:50.532Z,99.99
2023-05-07T06:32:50.563Z,99.99
2023-05-07T06:33:50.470Z,99.35
2023-05-07T06:34:50.469Z,99.99
2023-05-07T06:35:50.455Z,99.35
2023-05-07T06:36:50.531Z,98.99
2023-05-07T06:37:50.639Z,99.99
2023-05-07T06:38:50.435Z,99.99
2023-05-07T06:39:50.418Z,99.99
2023-05-07T06:40:50.402Z,99.99
2023-05-07T06:41:50.391Z,99.99
2023-05-07T06:42:50.381Z,99.99
2023-05-07T06:43:50.375Z,99.99
2023-05-07T06:44:50.357Z,99.99
2023-05-07T06:45:50.383Z,99.99
2023-05-07T06:46:50.334Z,99.99
2023-05-07T06:47:50.379Z,99.99
2023-05-07T06:48:50.318Z,99.99
2023-05-07T06:49:50.306Z,99.99
2023-05-07T06:50:50.293Z,99.99
2023-05-07T06:51:50.288Z,99.99
2023-05-07T06:52:50.404Z,99.99
2023-05-07T06:53:50.263Z,99.99
2023-05-07T06:54:50.252Z,99.99
2023-05-07T06:55:50.244Z,99.65
2023-05-07T06:56:50.229Z,99.65
2023-05-07T06:57:50.217Z,99.99
2023-05-07T06:58:50.211Z,99.99
2023-05-07T06:59:50.195Z,99.99
2023-05-07T07:00:50.190Z,99.90
2023-05-07T07:01:50.272Z,99.40
2023-05-07T07:02:50.218Z,98.99
2023-05-07T07:03:50.157Z,99.55
2023-05-07T07:04:50.216Z,98.39
2023-05-07T07:05:50.133Z,96.77
2023-05-07T07:06:50.121Z,97.43
2023-05-07T07:07:50.112Z,97.19
2023-05-07T07:08:50.190Z,97.49
2023-05-07T07:09:50.090Z,96.98
2023-05-07T07:10:50.281Z,96.83
2023-05-07T07:11:50.068Z,95.77
2023-05-07T07:12:50.104Z,95.83
2023-05-07T07:13:50.048Z,95.41
2023-05-07T07:14:50.041Z,95.67
2023-05-07T07:15:50.051Z,95.07
2023-05-07T07:16:50.019Z,95.62
2023-05-07T07:17:50.040Z,95.22
2023-05-07T07:18:49.996Z,93.95
2023-05-07T07:19:49.987Z,94.31
2023-05-07T07:20:49.983Z,93.14
2023-05-07T07:21:49.955Z,93.75
2023-05-07T07:22:49.951Z,95.92
2023-05-07T07:23:49.940Z,95.58
2023-05-07T07:24:50.020Z,95.48
2023-05-07T07:25:49.917Z,93.35
2023-05-07T07:26:49.905Z,93.70
2023-05-07T07:27:49.896Z,94.41
2023-05-07T07:28:49.888Z,95.03
2023-05-07T07:29:49.894Z,91.94
2023-05-07T07:30:49.867Z,91.49
2023-05-07T07:31:49.997Z,91.39
2023-05-07T07:32:49.902Z,90.58
2023-05-07T07:33:51.639Z,89.88
2023-05-07T07:34:49.820Z,90.14
2023-05-07T07:35:49.808Z,91.30
2023-05-07T07:36:49.799Z,90.08
2023-05-07T07:37:49.792Z,89.53
2023-05-07T07:38:49.779Z,88.22
2023-05-07T07:39:49.770Z,90.10
2023-05-07T07:40:49.776Z,89.39
2023-05-07T07:41:49.746Z,89.41
2023-05-07T07:42:49.735Z,86.64
2023-05-07T07:43:50.023Z,83.78
2023-05-07T07:44:49.715Z,83.90
2023-05-07T07:45:49.707Z,83.70
2023-05-07T07:46:49.744Z,82.62
2023-05-07T07:47:49.703Z,80.93
2023-05-07T07:48:49.675Z,79.19
2023-05-07T07:49:49.662Z,76.98
2023-05-07T07:50:49.654Z,77.94
2023-05-07T07:51:49.645Z,75.50
2023-05-07T07:52:49.658Z,76.08
2023-05-07T07:53:49.622Z,77.45
2023-05-07T07:54:49.607Z,78.80
2023-05-07T07:55:49.600Z,81.11
2023-05-07T07:56:49.680Z,80.68
2023-05-07T07:57:49.582Z,81.59
2023-05-07T07:58:49.570Z,79.04
2023-05-07T07:59:49.761Z,78.97
2023-05-07T08:00:49.549Z,79.24
2023-05-07T08:01:49.583Z,78.37
2023-05-07T08:02:49.686Z,79.44
2023-05-07T08:03:49.609Z,79.71
2023-05-07T08:04:49.511Z,80.28
2023-05-07T08:05:49.495Z,81.09
2023-05-07T08:06:49.485Z,80.92
2023-05-07T08:07:49.472Z,80.14
2023-05-07T08:08:49.467Z,79.76
2023-05-07T08:09:49.454Z,79.41
2023-05-07T08:10:49.443Z,79.25
2023-05-07T08:11:49.438Z,81.17
2023-05-07T08:12:49.465Z,80.46
2023-05-07T08:13:49.416Z,80.36
2023-05-07T08:14:49.404Z,81.37
2023-05-07T08:15:49.397Z,79.89
2023-05-07T08:16:49.400Z,81.81
2023-05-07T08:17:49.494Z,82.45
2023-05-07T08:18:49.362Z,82.47
2023-05-07T08:19:49.352Z,82.21
2023-05-07T08:20:49.340Z,83.28
2023-05-07T08:21:49.348Z,80.52
2023-05-07T08:22:49.545Z,81.39
2023-05-07T08:23:49.309Z,79.90
2023-05-07T08:24:49.301Z,78.56
2023-05-07T08:25:49.309Z,76.42
2023-05-07T08:26:49.283Z,78.56
2023-05-07T08:27:49.273Z,77.36
2023-05-07T08:28:49.373Z,79.47
2023-05-07T08:29:49.249Z,80.24
2023-05-07T08:30:49.469Z,81.09
2023-05-07T08:31:49.232Z,79.18
2023-05-07T08:32:49.275Z,81.65
2023-05-07T08:33:49.206Z,79.00
2023-05-07T08:34:49.203Z,79.24
2023-05-07T08:35:49.186Z,78.70
2023-05-07T08:36:49.177Z,79.94
2023-05-07T08:37:49.191Z,78.10
2023-05-07T08:38:49.166Z,77.29
2023-05-07T08:39:49.145Z,77.23
2023-05-07T08:40:49.142Z,77.19
2023-05-07T08:41:49.126Z,78.23
2023-05-07T08:42:49.120Z,79.51
2023-05-07T08:43:49.103Z,78.67
2023-05-07T08:44:49.115Z,78.57
2023-05-07T08:45:49.147Z,77.56
2023-05-07T08:46:49.323Z,79.58
2023-05-07T08:47:49.141Z,78.24
2023-05-07T08:48:49.051Z,79.85
2023-05-07T08:49:49.044Z,78.23
2023-05-07T08:50:49.039Z,78.21
2023-05-07T08:51:49.015Z,79.35
2023-05-07T08:52:49.013Z,79.89
2023-05-07T08:53:48.994Z,81.98
2023-05-07T08:54:48.993Z,82.59
2023-05-07T08:55:48.992Z,83.11
2023-05-07T08:56:48.970Z,82.25
2023-05-07T08:57:48.954Z,82.35
2023-05-07T08:58:48.948Z,81.37
2023-05-07T08:59:48.924Z,81.20
2023-05-07T09:00:49.015Z,81.40
2023-05-07T09:01:49.146Z,81.14
2023-05-07T09:02:48.958Z,81.44
2023-05-07T09:03:48.958Z,82.01
2023-05-07T09:04:48.880Z,81.77
2023-05-07T09:05:48.869Z,80.66
2023-05-07T09:06:48.855Z,79.96
2023-05-07T09:07:48.845Z,80.32
2023-05-07T09:08:48.832Z,79.94
2023-05-07T09:09:48.821Z,79.94
2023-05-07T09:10:48.806Z,78.80
2023-05-07T09:11:48.799Z,78.80
2023-05-07T09:12:48.869Z,78.83
2023-05-07T09:13:48.778Z,78.22
2023-05-07T09:14:48.767Z,76.59
2023-05-07T09:15:48.767Z,76.15
2023-05-07T09:16:48.795Z,77.55
2023-05-07T09:17:48.741Z,76.25
2023-05-07T09:18:48.728Z,75.98
2023-05-07T09:19:48.714Z,76.72
2023-05-07T09:20:48.704Z,74.77
2023-05-07T09:21:48.710Z,73.40
2023-05-07T09:22:48.685Z,74.00
2023-05-07T09:23:48.671Z,73.06
2023-05-07T09:24:48.671Z,71.82
2023-05-07T09:25:48.658Z,73.09
2023-05-07T09:26:48.646Z,70.75
2023-05-07T09:27:48.632Z,70.66
2023-05-07T09:28:48.624Z,69.95
2023-05-07T09:29:48.611Z,69.89
2023-05-07T09:30:48.602Z,70.09
2023-05-07T09:31:48.641Z,70.42
2023-05-07T09:32:48.611Z,71.75
2023-05-07T09:33:48.599Z,71.06
2023-05-07T09:34:48.561Z,71.49
2023-05-07T09:35:48.558Z,71.19
2023-05-07T09:36:48.537Z,70.32
2023-05-07T09:37:48.528Z,68.92
2023-05-07T09:38:48.531Z,70.25
2023-05-07T09:39:48.518Z,71.66
2023-05-07T09:40:48.506Z,70.39
2023-05-07T09:41:48.489Z,69.92
2023-05-07T09:42:48.485Z,69.89
2023-05-07T09:43:48.478Z,74.83
2023-05-07T09:44:48.470Z,70.79
2023-05-07T09:45:48.491Z,72.29
2023-05-07T09:46:48.440Z,69.42
2023-05-07T09:47:48.460Z,68.49
2023-05-07T09:48:48.702Z,69.62
2023-05-07T09:49:48.407Z,70.69
2023-05-07T09:50:48.400Z,70.22
2023-05-07T09:51:49.892Z,69.79
2023-05-07T09:52:48.379Z,69.42
2023-05-07T09:53:48.367Z,69.05
2023-05-07T09:54:48.369Z,69.52
2023-05-07T09:55:48.363Z,67.29
2023-05-07T09:56:48.337Z,67.22
2023-05-07T09:57:48.329Z,67.08
2023-05-07T09:58:48.520Z,65.89
2023-05-07T09:59:48.341Z,64.50
2023-05-07T10:00:48.311Z,67.33
2023-05-07T10:01:48.286Z,63.33
2023-05-07T10:02:48.333Z,66.29
2023-05-07T10:03:48.486Z,63.40
2023-05-07T10:04:48.362Z,62.78
2023-05-07T10:05:48.247Z,63.70
2023-05-07T10:06:48.249Z,62.77
2023-05-07T10:07:48.225Z,64.27
2023-05-07T10:08:48.220Z,64.12
2023-05-07T10:09:49.028Z,65.30
2023-05-07T10:10:48.203Z,64.14
2023-05-07T10:11:48.190Z,62.24
2023-05-07T10:12:48.208Z,63.17
2023-05-07T10:13:48.167Z,61.30
2023-05-07T10:14:48.162Z,64.76
2023-05-07T10:15:48.149Z,66.55
2023-05-07T10:16:48.140Z,64.36
2023-05-07T10:17:48.335Z,62.51
2023-05-07T10:18:48.175Z,59.59
2023-05-07T10:19:48.111Z,60.43
2023-05-07T10:20:48.120Z,58.83
2023-05-07T10:21:48.096Z,59.00
2023-05-07T10:22:48.094Z,60.03
2023-05-07T10:23:48.074Z,62.95
2023-05-07T10:24:48.064Z,61.99
2023-05-07T10:25:48.055Z,61.55
2023-05-07T10:26:48.046Z,61.07
2023-05-07T10:27:48.035Z,58.28
2023-05-07T10:28:49.626Z,58.25
2023-05-07T10:29:48.015Z,60.67
2023-05-07T10:30:48.042Z,55.91
2023-05-07T10:31:48.002Z,55.76
2023-05-07T10:32:48.062Z,54.27
2023-05-07T10:33:47.976Z,53.95
2023-05-07T10:34:47.971Z,54.02
2023-05-07T10:35:47.957Z,55.31
2023-05-07T10:36:48.040Z,52.63
2023-05-07T10:37:47.947Z,51.22
2023-05-07T10:38:47.927Z,53.38
2023-05-07T10:39:47.916Z,52.81
2023-05-07T10:40:48.670Z,53.21
2023-05-07T10:41:47.900Z,51.72
2023-05-07T10:42:47.894Z,54.89
2023-05-07T10:43:47.970Z,52.56
2023-05-07T10:44:47.923Z,51.32
2023-05-07T10:45:47.947Z,53.43
2023-05-07T10:46:47.902Z,51.74
2023-05-07T10:47:47.944Z,52.04
2023-05-07T10:48:47.836Z,52.74
2023-05-07T10:49:47.942Z,53.65
2023-05-07T10:50:48.129Z,54.67
2023-05-07T10:51:47.802Z,56.83
2023-05-07T10:52:47.822Z,54.52
2023-05-07T10:53:47.855Z,53.41
2023-05-07T10:54:47.834Z,55.79
2023-05-07T10:55:47.891Z,53.63
2023-05-07T10:56:47.846Z,53.05
2023-05-07T10:57:47.950Z,49.59
2023-05-07T10:58:47.817Z,52.19
2023-05-07T10:59:47.856Z,52.11
2023-05-07T11:00:47.787Z,51.32
2023-05-07T11:01:47.814Z,53.16
2023-05-07T11:02:47.727Z,53.11
2023-05-07T11:03:47.689Z,55.00
2023-05-07T11:04:47.704Z,51.84
2023-05-07T11:05:47.723Z,53.38
2023-05-07T11:06:47.658Z,53.83
2023-05-07T11:07:47.646Z,55.02
2023-05-07T11:08:47.730Z,56.36
2023-05-07T11:09:47.626Z,56.59
2023-05-07T11:10:47.619Z,58.58
2023-05-07T11:11:48.440Z,56.51
2023-05-07T11:12:47.624Z,51.00
2023-05-07T11:13:47.600Z,52.98
2023-05-07T11:14:47.576Z,53.03
2023-05-07T11:15:47.612Z,52.04
2023-05-07T11:16:47.673Z,52.14
2023-05-07T11:17:47.617Z,52.86
2023-05-07T11:18:47.535Z,53.03
2023-05-07T11:19:47.522Z,51.69
2023-05-07T11:20:47.531Z,48.77
2023-05-07T11:21:47.502Z,51.39
2023-05-07T11:22:47.499Z,49.95
2023-05-07T11:23:47.484Z,52.61
2023-05-07T11:24:47.571Z,50.90
2023-05-07T11:25:47.472Z,51.49
2023-05-07T11:26:47.459Z,50.40
2023-05-07T11:27:47.451Z,54.13
2023-05-07T11:28:47.436Z,52.58
2023-05-07T11:29:47.421Z,54.01
2023-05-07T11:30:47.421Z,55.44
2023-05-07T11:31:47.489Z,55.84
2023-05-07T11:32:47.418Z,54.20
2023-05-07T11:33:47.387Z,52.63
2023-05-07T11:34:47.386Z,53.88
2023-05-07T11:35:47.367Z,53.23
2023-05-07T11:36:47.361Z,50.85
2023-05-07T11:37:47.352Z,49.56
2023-05-07T11:38:47.347Z,51.42
2023-05-07T11:39:47.330Z,53.47
2023-05-07T11:40:47.411Z,52.98
2023-05-07T11:41:47.312Z,53.75
2023-05-07T11:42:47.294Z,54.57
2023-05-07T11:43:47.290Z,53.61
2023-05-07T11:44:47.550Z,54.33
2023-05-07T11:45:47.288Z,56.27
2023-05-07T11:46:47.267Z,57.34
2023-05-07T11:47:47.292Z,55.49
2023-05-07T11:48:47.240Z,53.50
2023-05-07T11:49:47.239Z,54.69
2023-05-07T11:50:47.220Z,52.88
2023-05-07T11:51:47.210Z,51.42
2023-05-07T11:52:47.200Z,50.55
2023-05-07T11:53:47.190Z,51.00
2023-05-07T11:54:47.181Z,49.48
2023-05-07T11:55:47.168Z,52.21
2023-05-07T11:56:47.227Z,54.89
2023-05-07T11:57:47.150Z,54.25
2023-05-07T11:58:47.148Z,54.05
2023-05-07T11:59:47.129Z,55.02
2023-05-07T12:00:47.120Z,55.47
2023-05-07T12:01:47.129Z,54.57
2023-05-07T12:02:47.279Z,53.77
2023-05-07T12:03:47.599Z,53.00
2023-05-07T12:04:47.160Z,53.50
2023-05-07T12:05:47.078Z,55.12
2023-05-07T12:06:47.062Z,53.00
2023-05-07T12:07:47.050Z,55.93
2023-05-07T12:08:48.324Z,52.73
2023-05-07T12:09:47.033Z,53.03
2023-05-07T12:10:47.020Z,52.66
2023-05-07T12:11:47.013Z,50.15
2023-05-07T12:12:47.066Z,52.80
2023-05-07T12:13:46.993Z,50.73
2023-05-07T12:14:47.004Z,50.62
2023-05-07T12:15:46.972Z,51.89
2023-05-07T12:16:47.022Z,53.13
2023-05-07T12:17:47.038Z,55.40
2023-05-07T12:18:46.950Z,57.23
2023-05-07T12:19:46.928Z,57.83
2023-05-07T12:20:46.923Z,52.88
2023-05-07T12:21:46.915Z,55.30
2023-05-07T12:22:46.910Z,58.05
2023-05-07T12:23:46.892Z,53.21
2023-05-07T12:24:46.945Z,54.79
2023-05-07T12:25:46.872Z,54.17
2023-05-07T12:26:46.868Z,54.17
2023-05-07T12:27:46.857Z,56.33
2023-05-07T12:28:47.072Z,51.44
2023-05-07T12:29:46.833Z,52.80
2023-05-07T12:30:46.825Z,53.72
2023-05-07T12:31:47.044Z,50.45
2023-05-07T12:32:46.858Z,50.20
2023-05-07T12:33:46.798Z,53.48
2023-05-07T12:34:46.791Z,54.47
2023-05-07T12:35:46.783Z,55.67
2023-05-07T12:36:46.772Z,55.42
2023-05-07T12:37:46.757Z,56.32
2023-05-07T12:38:46.748Z,58.76
2023-05-07T12:39:46.739Z,61.98
2023-05-07T12:40:46.728Z,62.04
2023-05-07T12:41:46.720Z,59.52
2023-05-07T12:42:46.911Z,59.14
2023-05-07T12:43:46.706Z,61.14
2023-05-07T12:44:46.710Z,58.95
2023-05-07T12:45:46.674Z,60.50
2023-05-07T12:46:46.703Z,58.63
2023-05-07T12:47:46.831Z,60.06
2023-05-07T12:48:46.661Z,60.33
2023-05-07T12:49:46.638Z,62.90
2023-05-07T12:50:46.626Z,61.07
2023-05-07T12:51:46.619Z,61.27
2023-05-07T12:52:46.612Z,60.15
2023-05-07T12:53:46.596Z,63.76
2023-05-07T12:54:46.585Z,63.46
2023-05-07T12:55:46.582Z,64.00
2023-05-07T12:56:46.565Z,62.93
2023-05-07T12:57:46.557Z,63.00
2023-05-07T12:58:46.541Z,63.50
2023-05-07T12:59:46.536Z,62.50
2023-05-07T13:00:46.545Z,64.20
2023-05-07T13:01:46.564Z,64.72
2023-05-07T13:02:46.681Z,63.36
2023-05-07T13:03:46.554Z,63.46
2023-05-07T13:04:46.490Z,63.83
2023-05-07T13:05:46.475Z,61.29
2023-05-07T13:06:46.460Z,62.06
2023-05-07T13:07:46.447Z,63.56
2023-05-07T13:08:46.433Z,63.96
2023-05-07T13:09:46.428Z,63.36
2023-05-07T13:10:46.420Z,62.69
2023-05-07T13:11:46.408Z,63.89
2023-05-07T13:12:46.402Z,65.42
2023-05-07T13:13:46.390Z,65.72
2023-05-07T13:14:46.375Z,64.79
2023-05-07T13:15:46.533Z,65.78
2023-05-07T13:16:46.462Z,66.09
2023-05-07T13:17:46.423Z,65.36
2023-05-07T13:18:46.651Z,62.96
2023-05-07T13:19:46.323Z,63.82
2023-05-07T13:20:46.308Z,65.68
2023-05-07T13:21:46.302Z,64.25
2023-05-07T13:22:46.301Z,66.05
2023-05-07T13:23:46.283Z,66.29
2023-05-07T13:24:46.268Z,65.55
2023-05-07T13:25:46.262Z,64.19
2023-05-07T13:26:46.403Z,63.69
2023-05-07T13:27:48.093Z,65.95
2023-05-07T13:28:46.228Z,63.92
2023-05-07T13:29:46.222Z,66.45
2023-05-07T13:30:46.208Z,65.75
2023-05-07T13:31:47.799Z,66.48
2023-05-07T13:32:46.229Z,66.08
2023-05-07T13:33:46.171Z,67.18
2023-05-07T13:34:46.164Z,67.71
2023-05-07T13:35:46.170Z,67.12
2023-05-07T13:36:47.798Z,70.75
2023-05-07T13:37:46.143Z,69.02
2023-05-07T13:38:46.120Z,68.95
2023-05-07T13:39:46.111Z,68.68
2023-05-07T13:40:46.097Z,68.95
2023-05-07T13:41:46.089Z,69.05
2023-05-07T13:42:46.080Z,70.62
2023-05-07T13:43:46.069Z,69.09
2023-05-07T13:44:46.054Z,70.59
2023-05-07T13:45:46.071Z,70.99
2023-05-07T13:46:46.042Z,69.05
2023-05-07T13:47:46.041Z,69.48
2023-05-07T13:48:46.233Z,71.36
2023-05-07T13:49:46.003Z,70.15
2023-05-07T13:50:45.991Z,71.72
2023-05-07T13:51:46.027Z,71.09
2023-05-07T13:52:47.207Z,70.42
2023-05-07T13:53:45.961Z,73.40
2023-05-07T13:54:45.966Z,72.10
2023-05-07T13:55:45.947Z,72.60
2023-05-07T13:56:45.931Z,72.93
2023-05-07T13:57:45.920Z,72.93
2023-05-07T13:58:58.787Z,72.77
2023-05-07T13:59:46.925Z,73.87
2023-05-07T14:00:45.901Z,73.94
2023-05-07T14:01:45.894Z,71.89
2023-05-07T14:02:45.965Z,73.20
2023-05-07T14:03:46.094Z,72.07
2023-05-07T14:04:45.865Z,72.03
2023-05-07T14:05:47.187Z,72.66
2023-05-07T14:06:45.822Z,72.63
2023-05-07T14:07:45.821Z,72.57
2023-05-07T14:08:45.805Z,73.00
2023-05-07T14:09:45.793Z,72.93
2023-05-07T14:10:45.781Z,73.04
2023-05-07T14:11:45.774Z,72.36
2023-05-07T14:12:45.790Z,73.43
2023-05-07T14:13:45.806Z,72.27
2023-05-07T14:14:45.749Z,72.86
2023-05-07T14:15:45.727Z,73.04
2023-05-07T14:16:46.541Z,72.33
2023-05-07T14:17:45.775Z,73.50
2023-05-07T14:18:45.694Z,72.93
2023-05-07T14:19:45.691Z,74.98
2023-05-07T14:20:45.696Z,75.28
2023-05-07T14:21:45.674Z,75.54
2023-05-07T14:22:45.668Z,72.30
2023-05-07T14:23:45.654Z,72.77
2023-05-07T14:24:48.530Z,74.94
2023-05-07T14:25:46.650Z,74.27
2023-05-07T14:26:45.611Z,74.78
2023-05-07T14:27:45.604Z,74.88
2023-05-07T14:28:45.588Z,73.20
2023-05-07T14:29:45.590Z,75.18
2023-05-07T14:30:45.616Z,73.44
2023-05-07T14:31:45.556Z,74.14
2023-05-07T14:32:45.580Z,75.48
2023-05-07T14:33:45.543Z,74.88
2023-05-07T14:34:45.525Z,75.78
2023-05-07T14:35:45.515Z,75.48
2023-05-07T14:36:45.542Z,76.19
2023-05-07T14:37:45.494Z,76.59
2023-05-07T14:38:45.480Z,74.74
2023-05-07T14:40:45.460Z,77.36
2023-05-07T14:41:45.453Z,77.79
2023-05-07T14:42:45.438Z,78.10
2023-05-07T14:43:45.432Z,77.69
2023-05-07T14:44:45.419Z,79.51
2023-05-07T14:45:45.451Z,80.92
2023-05-07T14:46:45.446Z,81.18
2023-05-07T14:47:45.432Z,81.49
2023-05-07T14:48:45.383Z,81.79
2023-05-07T14:49:45.369Z,81.93
2023-05-07T14:50:45.356Z,82.84
2023-05-07T14:51:45.347Z,81.89
2023-05-07T14:52:45.357Z,81.69
2023-05-07T14:53:45.328Z,81.77
2023-05-07T14:54:45.325Z,82.13
2023-05-07T14:55:45.309Z,81.77
2023-05-07T14:56:45.295Z,82.47
2023-05-07T14:57:45.285Z,82.98
2023-05-07T14:58:45.277Z,83.58
2023-05-07T14:59:45.275Z,83.44
2023-05-07T15:00:45.456Z,84.35
2023-05-07T15:01:45.335Z,83.28
2023-05-07T15:02:45.267Z,84.79
2023-05-07T15:03:45.366Z,85.45
2023-05-07T15:04:45.215Z,85.76
2023-05-07T15:05:45.201Z,85.49
2023-05-07T15:06:45.193Z,85.09
2023-05-07T15:07:45.811Z,84.73
2023-05-07T15:08:45.198Z,85.96
2023-05-07T15:09:45.169Z,86.34
2023-05-07T15:10:45.148Z,88.60
2023-05-07T15:11:45.137Z,87.95
2023-05-07T15:12:45.172Z,87.85
2023-05-07T15:13:45.119Z,87.24
2023-05-07T15:14:45.105Z,86.60
2023-05-07T15:15:45.093Z,88.15
2023-05-07T15:16:45.121Z,88.25
2023-05-07T15:17:45.119Z,89.18
2023-05-07T15:18:45.072Z,88.51
2023-05-07T15:19:45.051Z,88.37
2023-05-07T15:20:45.045Z,88.92
2023-05-07T15:21:45.027Z,88.51
2023-05-07T15:22:45.015Z,88.58
2023-05-07T15:23:45.008Z,87.73
2023-05-07T15:24:45.038Z,86.81
2023-05-07T15:25:44.986Z,86.62
2023-05-07T15:26:44.978Z,86.66
2023-05-07T15:27:44.966Z,85.41
2023-05-07T15:28:44.950Z,85.62
2023-05-07T15:29:44.943Z,86.27
2023-05-07T15:30:44.935Z,86.07
2023-05-07T15:31:44.964Z,87.73
2023-05-07T15:32:44.982Z,85.98
2023-05-07T15:33:45.104Z,86.72
2023-05-07T15:34:44.888Z,87.44
2023-05-07T15:35:44.891Z,86.64
2023-05-07T15:36:44.867Z,84.19
2023-05-07T15:37:44.862Z,86.04
2023-05-07T15:38:44.846Z,87.56
2023-05-07T15:39:44.838Z,87.06
2023-05-07T15:40:44.845Z,85.69
2023-05-07T15:41:44.815Z,84.69
2023-05-07T15:42:44.824Z,82.44
2023-05-07T15:43:45.012Z,85.05
2023-05-07T15:44:44.786Z,85.75
2023-05-07T15:45:44.810Z,84.41
2023-05-07T15:46:44.770Z,81.32
2023-05-07T15:47:44.795Z,80.70
2023-05-07T15:48:44.780Z,81.03
2023-05-07T15:49:44.741Z,82.34
2023-05-07T15:50:44.717Z,83.20
2023-05-07T15:51:44.715Z,84.11
2023-05-07T15:52:44.701Z,82.60
2023-05-07T15:53:44.690Z,84.03
2023-05-07T15:54:44.679Z,81.86
2023-05-07T15:55:44.670Z,81.06
2023-05-07T15:56:44.686Z,81.86
2023-05-07T15:57:44.646Z,79.41
2023-05-07T15:58:44.643Z,82.42
2023-05-07T15:59:44.624Z,80.41
2023-05-07T16:00:44.643Z,81.42
2023-05-07T16:01:44.722Z,78.45
2023-05-07T16:02:44.697Z,79.95
2023-05-07T16:03:44.700Z,79.77
2023-05-07T16:04:44.581Z,78.41
2023-05-07T16:05:44.567Z,78.71
2023-05-07T16:06:44.557Z,78.11
2023-05-07T16:07:44.557Z,78.07
2023-05-07T16:08:44.552Z,76.83
2023-05-07T16:09:44.526Z,76.73
2023-05-07T16:10:44.520Z,76.80
2023-05-07T16:11:44.520Z,74.29
2023-05-07T16:12:44.736Z,78.64
2023-05-07T16:13:44.481Z,76.53
2023-05-07T16:14:44.470Z,75.33
2023-05-07T16:15:44.460Z,74.96
2023-05-07T16:16:44.469Z,73.39
2023-05-07T16:17:44.442Z,74.26
2023-05-07T16:18:44.427Z,74.26
2023-05-07T16:19:44.415Z,74.92
2023-05-07T16:20:44.401Z,74.72
2023-05-07T16:21:44.393Z,72.66
2023-05-07T16:22:44.397Z,73.26
2023-05-07T16:23:44.379Z,72.05
2023-05-07T16:24:44.425Z,72.79
2023-05-07T16:25:44.350Z,72.69
2023-05-07T16:26:44.337Z,72.39
2023-05-07T16:27:44.328Z,73.52
2023-05-07T16:28:44.338Z,74.53
2023-05-07T16:29:44.306Z,75.57
2023-05-07T16:30:44.341Z,75.80
2023-05-07T16:31:44.285Z,76.81
2023-05-07T16:32:44.310Z,76.30
2023-05-07T16:33:44.258Z,77.85
2023-05-07T16:34:44.248Z,75.20
2023-05-07T16:35:44.243Z,77.14
2023-05-07T16:36:44.225Z,76.14
2023-05-07T16:37:44.212Z,76.54
2023-05-07T16:38:44.202Z,75.84
2023-05-07T16:39:44.207Z,76.68
2023-05-07T16:40:44.197Z,77.05
2023-05-07T16:41:44.172Z,77.52
2023-05-07T16:42:44.380Z,76.98